createdAt,value
2018-05-31T00:00:24.408Z,76.70
2018-05-31T00:02:57.087Z,76.70
2018-05-31T00:05:29.466Z,76.60
2018-05-31T00:08:01.809Z,76.60
2018-05-31T00:10:35.870Z,76.70
2018-05-31T00:13:08.431Z,76.70
2018-05-31T00:15:40.953Z,76.70
2018-05-31T00:18:14.313Z,75.70
2018-05-31T00:20:47.100Z,75.70
2018-05-31T00:23:19.618Z,75.60
2018-05-31T00:25:52.854Z,75.70
2018-05-31T00:28:25.646Z,75.70
2018-05-31T00:30:58.125Z,75.60
2018-05-31T00:33:32.179Z,75.60
2018-05-31T00:36:04.707Z,75.50
2018-05-31T00:38:37.157Z,75.70
2018-05-31T00:41:11.215Z,75.60
2018-05-31T00:43:43.964Z,75.70
2018-05-31T00:46:16.417Z,75.50
2018-05-31T00:48:48.922Z,75.50
2018-05-31T00:51:23.178Z,74.80
2018-05-31T00:53:55.927Z,74.80
2018-05-31T00:56:28.355Z,75.10
2018-05-31T00:59:00.840Z,75.30
2018-05-31T01:01:34.162Z,75.40
2018-05-31T01:04:06.768Z,75.30
2018-05-31T01:06:40.055Z,75.00
2018-05-31T01:09:13.446Z,75.30
2018-05-31T01:11:46.791Z,75.50
2018-05-31T01:14:19.228Z,75.60
2018-05-31T01:16:53.398Z,75.50
2018-05-31T01:19:26.778Z,76.00
2018-05-31T01:22:00.160Z,76.00
2018-05-31T01:24:32.823Z,76.00
2018-05-31T01:27:05.211Z,75.90
2018-05-31T01:29:37.778Z,75.90
2018-05-31T01:32:10.119Z,75.90
2018-05-31T01:34:43.255Z,76.30
2018-05-31T01:37:16.618Z,76.50
2018-05-31T01:39:50.033Z,76.50
2018-05-31T01:42:23.521Z,76.60
2018-05-31T01:44:56.234Z,76.50
2018-05-31T01:47:29.567Z,76.70
2018-05-31T01:50:02.738Z,77.50
2018-05-31T01:52:35.410Z,77.40
2018-05-31T01:55:07.837Z,78.20
2018-05-31T01:57:41.032Z,78.70
2018-05-31T02:00:13.514Z,78.60
2018-05-31T02:02:46.020Z,78.80
2018-05-31T02:05:18.448Z,78.90
2018-05-31T02:07:52.621Z,79.10
2018-05-31T02:10:25.161Z,79.20
2018-05-31T02:12:58.442Z,79.40
2018-05-31T02:15:31.578Z,79.70
2018-05-31T02:18:04.242Z,79.70
2018-05-31T02:20:37.556Z,79.90
2018-05-31T02:23:10.270Z,79.80
2018-05-31T02:25:43.522Z,80.20
2018-05-31T02:28:16.269Z,80.20
2018-05-31T02:30:48.825Z,80.30
2018-05-31T02:33:22.945Z,80.60
2018-05-31T02:35:55.742Z,80.50
2018-05-31T02:38:29.035Z,80.50
2018-05-31T02:41:01.452Z,80.70
2018-05-31T02:43:34.704Z,81.00
2018-05-31T02:46:07.413Z,81.00
2018-05-31T02:48:39.721Z,81.10
2018-05-31T02:51:12.284Z,81.10
2018-05-31T02:53:44.729Z,81.20
2018-05-31T02:56:17.132Z,81.20
2018-05-31T02:58:50.523Z,81.30
2018-05-31T03:01:23.082Z,81.40
2018-05-31T03:03:56.165Z,81.60
2018-05-31T03:06:28.801Z,81.40
2018-05-31T03:09:02.013Z,81.50
2018-05-31T03:11:35.322Z,81.40
2018-05-31T03:14:07.786Z,81.40
2018-05-31T03:16:40.936Z,81.40
2018-05-31T03:19:14.302Z,81.40
2018-05-31T03:21:47.033Z,81.30
2018-05-31T03:24:19.501Z,81.30
2018-05-31T03:26:52.858Z,81.50
2018-05-31T03:29:25.340Z,81.50
2018-05-31T03:31:57.725Z,81.50
2018-05-31T03:34:30.209Z,81.60
2018-05-31T03:37:03.421Z,81.90
2018-05-31T03:39:36.126Z,81.90
2018-05-31T03:42:09.571Z,82.70
2018-05-31T03:44:42.913Z,82.20
2018-05-31T03:47:15.301Z,82.30
2018-05-31T03:49:47.771Z,82.30
2018-05-31T03:52:21.084Z,82.30
2018-05-31T03:54:54.202Z,82.60
2018-05-31T03:57:26.749Z,82.60
2018-05-31T04:00:00.137Z,82.80
2018-05-31T04:02:33.416Z,82.80
2018-05-31T04:05:05.962Z,82.80
2018-05-31T04:07:38.351Z,82.70
2018-05-31T04:10:11.720Z,82.80
2018-05-31T04:12:44.767Z,82.80
2018-05-31T04:15:17.547Z,82.80
2018-05-31T04:17:50.777Z,82.90
2018-05-31T04:20:23.489Z,82.90
2018-05-31T04:22:55.880Z,82.80
2018-05-31T04:25:29.005Z,82.80
2018-05-31T04:28:01.631Z,82.80
2018-05-31T04:30:34.033Z,82.80
2018-05-31T04:33:07.416Z,82.60
2018-05-31T04:35:47.849Z,82.30
2018-05-31T04:38:21.231Z,81.90
2018-05-31T04:40:54.698Z,81.80
2018-05-31T04:43:28.835Z,81.60
2018-05-31T04:46:01.421Z,81.50
2018-05-31T04:48:35.574Z,81.20
2018-05-31T04:51:09.049Z,81.70
2018-05-31T04:53:41.965Z,81.00
2018-05-31T04:56:15.435Z,80.30
2018-05-31T04:58:48.732Z,79.20
2018-05-31T05:01:21.901Z,79.50
2018-05-31T05:03:54.611Z,79.10
2018-05-31T05:06:27.142Z,78.70
2018-05-31T05:09:00.282Z,76.80
2018-05-31T05:11:33.014Z,76.80
2018-05-31T05:14:05.632Z,76.90
2018-05-31T05:16:38.123Z,76.30
2018-05-31T05:19:11.545Z,75.70
2018-05-31T05:21:44.952Z,75.60
2018-05-31T05:24:18.267Z,75.20
2018-05-31T05:26:50.676Z,74.70
2018-05-31T05:29:23.089Z,74.00
2018-05-31T05:31:55.714Z,71.70
2018-05-31T05:34:29.220Z,69.70
2018-05-31T05:37:02.493Z,64.40
2018-05-31T05:39:34.994Z,64.40
2018-05-31T05:42:08.358Z,62.10
2018-05-31T05:44:40.857Z,60.00
2018-05-31T05:47:14.264Z,57.90
2018-05-31T05:49:47.595Z,55.30
2018-05-31T05:52:20.167Z,55.20
2018-05-31T05:54:52.710Z,52.90
2018-05-31T05:57:32.784Z,51.60
2018-05-31T06:00:06.484Z,51.10
2018-05-31T06:02:39.969Z,49.50
2018-05-31T06:05:12.861Z,50.00
2018-05-31T06:07:46.970Z,48.90
2018-05-31T06:10:20.449Z,48.50
2018-05-31T06:12:53.207Z,48.40
2018-05-31T06:15:25.722Z,48.10
2018-05-31T06:17:59.833Z,46.70
2018-05-31T06:20:32.625Z,46.70
2018-05-31T06:23:05.808Z,46.50
2018-05-31T06:25:38.517Z,46.50
2018-05-31T06:28:11.881Z,46.40
2018-05-31T06:30:45.356Z,45.80
2018-05-31T06:33:19.797Z,44.90
2018-05-31T06:35:53.174Z,44.70
2018-05-31T06:38:25.694Z,45.80
2018-05-31T06:40:58.822Z,47.30
2018-05-31T06:43:31.465Z,47.80
2018-05-31T06:46:04.651Z,48.30
2018-05-31T06:48:37.853Z,47.20
2018-05-31T06:51:11.172Z,46.10
2018-05-31T06:53:43.867Z,46.10
2018-05-31T06:56:18.085Z,45.40
2018-05-31T06:58:51.447Z,45.90
2018-05-31T07:01:24.817Z,46.60
2018-05-31T07:03:57.490Z,46.60
2018-05-31T07:06:30.859Z,46.80
2018-05-31T07:09:04.406Z,46.60
2018-05-31T07:11:37.077Z,46.00
2018-05-31T07:14:10.168Z,46.50
2018-05-31T07:16:43.540Z,46.50
2018-05-31T07:19:16.881Z,45.60
2018-05-31T07:21:49.441Z,45.20
2018-05-31T07:24:22.772Z,45.50
2018-05-31T07:26:56.127Z,45.80
2018-05-31T07:29:30.315Z,46.80
2018-05-31T07:32:02.875Z,45.70
2018-05-31T07:34:35.430Z,45.60
2018-05-31T07:37:08.758Z,45.00
2018-05-31T07:39:42.154Z,44.70
2018-05-31T07:42:15.378Z,45.10
2018-05-31T07:44:48.275Z,45.10
2018-05-31T07:47:21.449Z,45.10
2018-05-31T07:49:54.784Z,45.10
2018-05-31T07:52:28.899Z,45.30
2018-05-31T07:55:01.891Z,45.20
2018-05-31T07:57:34.818Z,44.70
2018-05-31T08:00:08.270Z,44.40
2018-05-31T08:02:41.548Z,45.40
2018-05-31T08:05:13.958Z,46.30
2018-05-31T08:07:48.002Z,46.50
2018-05-31T08:10:20.673Z,46.30
2018-05-31T08:12:53.219Z,46.50
2018-05-31T08:15:26.613Z,46.00
2018-05-31T08:17:59.013Z,46.10
2018-05-31T08:20:31.634Z,46.60
2018-05-31T08:23:05.697Z,44.90
2018-05-31T08:25:39.144Z,45.70
2018-05-31T08:28:12.488Z,46.50
2018-05-31T08:30:45.099Z,46.50
2018-05-31T08:33:17.613Z,46.00
2018-05-31T08:35:51.769Z,46.30
2018-05-31T08:38:24.403Z,46.30
2018-05-31T08:40:57.829Z,45.70
2018-05-31T08:43:31.257Z,45.90
2018-05-31T08:46:05.500Z,44.70
2018-05-31T08:48:38.213Z,44.70
2018-05-31T08:51:10.759Z,45.20
2018-05-31T08:53:44.865Z,44.80
2018-05-31T08:56:18.195Z,44.40
2018-05-31T08:58:50.866Z,44.40
2018-05-31T09:01:24.135Z,43.50
2018-05-31T09:03:57.639Z,43.80
2018-05-31T09:06:30.951Z,43.50
2018-05-31T09:09:05.058Z,42.20
2018-05-31T09:11:37.679Z,42.10
2018-05-31T09:14:10.154Z,42.00
2018-05-31T09:16:42.566Z,41.70
2018-05-31T09:19:14.980Z,40.80
2018-05-31T09:21:49.061Z,41.30
2018-05-31T09:24:21.577Z,41.20
2018-05-31T09:26:55.090Z,41.00
2018-05-31T09:29:29.139Z,42.30
2018-05-31T09:32:02.553Z,41.20
2018-05-31T09:34:35.222Z,41.10
2018-05-31T09:37:08.484Z,43.10
2018-05-31T09:39:41.848Z,43.10
2018-05-31T09:42:15.147Z,42.70
2018-05-31T09:44:48.515Z,42.40
2018-05-31T09:47:22.527Z,43.30
2018-05-31T09:49:55.191Z,43.30
2018-05-31T09:52:28.437Z,44.50
2018-05-31T09:55:01.071Z,44.30
2018-05-31T09:57:34.242Z,43.80
2018-05-31T10:00:07.605Z,44.80
2018-05-31T10:02:40.998Z,44.00
2018-05-31T10:05:14.296Z,44.60
2018-05-31T10:07:47.498Z,43.60
2018-05-31T10:10:19.880Z,43.90
2018-05-31T10:12:53.061Z,45.20
2018-05-31T10:15:25.904Z,45.20
2018-05-31T10:17:59.359Z,44.40
2018-05-31T10:20:31.769Z,44.50
2018-05-31T10:23:05.240Z,45.60
2018-05-31T10:25:38.546Z,44.70
2018-05-31T10:28:11.067Z,43.40
2018-05-31T10:30:44.269Z,44.40
2018-05-31T10:33:16.699Z,46.70
2018-05-31T10:35:50.151Z,47.50
2018-05-31T10:38:22.636Z,47.50
2018-05-31T10:40:56.897Z,46.10
2018-05-31T10:43:29.513Z,46.10
2018-05-31T10:46:01.981Z,47.80
2018-05-31T10:48:34.461Z,47.70
2018-05-31T10:51:06.972Z,47.50
2018-05-31T10:53:39.424Z,47.60
2018-05-31T10:56:12.873Z,48.50
2018-05-31T10:58:46.187Z,46.70
2018-05-31T11:01:19.548Z,47.60
2018-05-31T11:03:52.868Z,47.60
2018-05-31T11:06:26.415Z,44.80
2018-05-31T11:08:59.748Z,44.80
2018-05-31T11:11:32.985Z,45.70
2018-05-31T11:14:05.684Z,45.50
2018-05-31T11:16:38.207Z,47.60
2018-05-31T11:19:11.544Z,48.00
2018-05-31T11:21:45.735Z,49.70
2018-05-31T11:24:18.238Z,49.60
2018-05-31T11:26:50.709Z,51.10
2018-05-31T11:29:24.799Z,53.20
2018-05-31T11:31:57.654Z,52.50
2018-05-31T11:34:30.469Z,51.60
2018-05-31T11:37:03.328Z,49.80
2018-05-31T11:39:36.362Z,51.00
2018-05-31T11:42:08.749Z,50.90
2018-05-31T11:44:41.931Z,51.30
2018-05-31T11:47:15.210Z,50.90
2018-05-31T11:49:47.706Z,52.80
2018-05-31T11:52:21.373Z,51.20
2018-05-31T11:54:55.255Z,52.00
2018-05-31T11:57:29.347Z,50.60
2018-05-31T12:00:03.451Z,52.20
2018-05-31T12:02:36.692Z,52.30
2018-05-31T12:05:09.850Z,52.30
2018-05-31T12:07:43.295Z,51.50
2018-05-31T12:10:16.170Z,51.50
2018-05-31T12:12:49.387Z,53.40
2018-05-31T12:15:22.209Z,53.20
2018-05-31T12:17:54.794Z,51.50
2018-05-31T12:20:27.282Z,52.70
2018-05-31T12:23:00.481Z,53.50
2018-05-31T12:25:33.228Z,53.40
2018-05-31T12:28:05.769Z,54.10
2018-05-31T12:30:38.344Z,52.90
2018-05-31T12:33:10.973Z,53.80
2018-05-31T12:35:44.351Z,54.70
2018-05-31T12:38:16.899Z,54.80
2018-05-31T12:40:50.314Z,54.50
2018-05-31T12:43:23.521Z,54.50
2018-05-31T12:45:57.073Z,55.10
2018-05-31T12:48:29.607Z,55.10
2018-05-31T12:51:02.706Z,52.00
2018-05-31T12:53:35.364Z,52.00
2018-05-31T12:56:08.091Z,52.60
2018-05-31T12:58:40.730Z,51.20
2018-05-31T13:01:13.514Z,52.40
2018-05-31T13:03:46.713Z,53.60
2018-05-31T13:06:19.793Z,54.80
2018-05-31T13:08:52.830Z,52.40
2018-05-31T13:11:25.761Z,53.20
2018-05-31T13:13:58.804Z,52.90
2018-05-31T13:16:32.171Z,52.80
2018-05-31T13:19:05.712Z,55.10
2018-05-31T13:21:38.460Z,55.10
2018-05-31T13:24:11.871Z,51.60
2018-05-31T13:26:45.240Z,51.20
2018-05-31T13:29:18.503Z,51.40
2018-05-31T13:31:51.110Z,53.90
2018-05-31T13:34:23.561Z,51.60
2018-05-31T13:36:56.060Z,52.70
2018-05-31T13:39:28.586Z,52.00
2018-05-31T13:42:01.417Z,50.70
2018-05-31T13:44:35.398Z,50.40
2018-05-31T13:47:08.474Z,50.30
2018-05-31T13:49:41.013Z,50.60
2018-05-31T13:52:13.580Z,50.10
2018-05-31T13:54:46.331Z,51.30
2018-05-31T13:57:20.103Z,50.70
2018-05-31T13:59:53.355Z,50.70
2018-05-31T14:02:26.940Z,48.50
2018-05-31T14:05:00.300Z,48.50
2018-05-31T14:07:33.108Z,49.00
2018-05-31T14:10:06.846Z,49.80
2018-05-31T14:12:40.664Z,50.00
2018-05-31T14:15:14.035Z,50.00
2018-05-31T14:17:47.145Z,50.30
2018-05-31T14:20:20.044Z,50.70
2018-05-31T14:22:53.272Z,50.80
2018-05-31T14:25:27.095Z,51.40
2018-05-31T14:28:00.246Z,51.30
2018-05-31T14:30:32.921Z,51.80
2018-05-31T14:33:05.331Z,52.40
2018-05-31T14:35:37.710Z,52.20
2018-05-31T14:38:10.383Z,52.90
2018-05-31T14:40:42.879Z,53.80
2018-05-31T14:43:15.451Z,53.70
2018-05-31T14:45:48.889Z,55.10
2018-05-31T14:48:21.502Z,54.40
2018-05-31T14:50:55.217Z,54.40
2018-05-31T14:53:28.638Z,55.90
2018-05-31T14:56:02.162Z,53.50
2018-05-31T14:58:35.602Z,52.20
2018-05-31T15:01:08.714Z,52.20
2018-05-31T15:03:41.395Z,52.40
2018-05-31T15:06:15.319Z,55.40
2018-05-31T15:08:49.106Z,55.70
2018-05-31T15:11:22.884Z,55.60
2018-05-31T15:14:03.270Z,56.90
2018-05-31T15:16:37.284Z,55.00
2018-05-31T15:19:11.559Z,54.20
2018-05-31T15:21:45.052Z,53.00
2018-05-31T15:24:18.456Z,53.00
2018-05-31T15:26:51.359Z,53.30
2018-05-31T15:29:24.747Z,53.50
2018-05-31T15:31:58.158Z,53.30
2018-05-31T15:34:31.369Z,53.60
2018-05-31T15:37:04.331Z,53.80
2018-05-31T15:39:37.234Z,53.50
2018-05-31T15:42:11.059Z,53.10
2018-05-31T15:44:44.575Z,53.60
2018-05-31T15:47:17.325Z,53.60
2018-05-31T15:49:49.887Z,52.90
2018-05-31T15:52:22.377Z,52.50
2018-05-31T15:54:55.813Z,52.90
2018-05-31T15:57:29.475Z,53.20
2018-05-31T16:00:03.281Z,52.40
2018-05-31T16:02:35.809Z,52.30
2018-05-31T16:05:08.259Z,52.40
2018-05-31T16:07:41.389Z,52.60
2018-05-31T16:10:13.936Z,52.90
2018-05-31T16:12:46.513Z,52.40
2018-05-31T16:15:20.810Z,52.40
2018-05-31T16:17:54.078Z,52.50
2018-05-31T16:20:27.911Z,54.50
2018-05-31T16:23:01.064Z,54.50
2018-05-31T16:25:34.949Z,55.40
2018-05-31T16:28:07.991Z,56.00
2018-05-31T16:30:40.902Z,56.90
2018-05-31T16:33:14.406Z,56.20
2018-05-31T16:35:47.374Z,56.20
2018-05-31T16:38:20.619Z,56.30
2018-05-31T16:40:53.490Z,56.90
2018-05-31T16:43:26.286Z,56.60
2018-05-31T16:45:59.375Z,56.60
2018-05-31T16:48:33.205Z,57.20
2018-05-31T16:51:06.363Z,57.20
2018-05-31T16:53:38.979Z,57.20
2018-05-31T16:56:11.478Z,57.30
2018-05-31T16:58:44.850Z,57.80
2018-05-31T17:01:17.516Z,58.10
2018-05-31T17:03:50.881Z,58.30
2018-05-31T17:06:24.032Z,58.50
2018-05-31T17:08:56.526Z,58.10
2018-05-31T17:11:29.951Z,58.60
2018-05-31T17:14:02.800Z,58.50
2018-05-31T17:16:36.145Z,59.30
2018-05-31T17:19:10.444Z,57.60
2018-05-31T17:21:43.451Z,57.60
2018-05-31T17:24:16.996Z,57.40
2018-05-31T17:26:50.425Z,57.50
2018-05-31T17:29:23.114Z,57.80
2018-05-31T17:31:55.628Z,57.90
2018-05-31T17:34:28.978Z,58.30
2018-05-31T17:37:01.499Z,58.00
2018-05-31T17:39:34.317Z,58.40
2018-05-31T17:42:06.754Z,59.10
2018-05-31T17:44:39.674Z,61.40
2018-05-31T17:47:12.294Z,60.90
2018-05-31T17:49:44.963Z,61.90
2018-05-31T17:52:17.882Z,61.70
2018-05-31T17:54:50.589Z,62.60
2018-05-31T17:57:24.379Z,63.20
2018-05-31T17:59:57.649Z,63.10
2018-05-31T18:02:30.703Z,63.70
2018-05-31T18:05:04.233Z,64.30
2018-05-31T18:07:37.945Z,64.20
2018-05-31T18:10:10.394Z,65.20
2018-05-31T18:12:42.766Z,65.20
2018-05-31T18:15:16.260Z,66.20
2018-05-31T18:17:49.638Z,66.70
2018-05-31T18:20:22.875Z,68.20
2018-05-31T18:22:55.557Z,68.10
2018-05-31T18:25:28.221Z,68.30
2018-05-31T18:28:00.802Z,68.40
2018-05-31T18:30:33.528Z,68.80
2018-05-31T18:33:06.821Z,69.50
2018-05-31T18:35:39.520Z,69.70
2018-05-31T18:38:13.667Z,68.90
2018-05-31T18:40:47.102Z,68.80
2018-05-31T18:43:19.951Z,67.50
2018-05-31T18:45:53.902Z,66.30
2018-05-31T18:48:27.326Z,66.10
2018-05-31T18:51:01.131Z,67.30
2018-05-31T18:53:35.021Z,66.00
2018-05-31T18:56:08.422Z,63.20
2018-05-31T18:58:41.809Z,63.20
2018-05-31T19:01:16.071Z,64.30
2018-05-31T19:03:51.300Z,64.20
2018-05-31T19:06:24.841Z,63.90
2018-05-31T19:08:57.831Z,63.50
2018-05-31T19:11:30.581Z,63.90
2018-05-31T19:14:03.307Z,63.90
2018-05-31T19:16:36.161Z,63.20
2018-05-31T19:19:15.748Z,63.60
2018-05-31T19:21:50.050Z,62.20
2018-05-31T19:24:29.312Z,62.50
2018-05-31T19:27:02.918Z,62.40
2018-05-31T19:29:36.519Z,61.90
2018-05-31T19:32:10.761Z,62.90
2018-05-31T19:34:44.687Z,62.80
2018-05-31T19:37:18.341Z,62.90
2018-05-31T19:39:52.741Z,64.20
2018-05-31T19:45:30.367Z,64.30
2018-05-31T19:48:05.533Z,64.60
2018-05-31T19:50:39.309Z,64.60
2018-05-31T19:53:19.378Z,65.20
2018-05-31T19:55:53.157Z,65.40
2018-05-31T19:58:33.740Z,65.80
2018-05-31T20:01:13.429Z,65.80
2018-05-31T20:03:46.586Z,66.10
2018-05-31T20:06:20.976Z,66.20
2018-05-31T20:08:54.530Z,66.10
2018-05-31T20:11:27.615Z,66.00
2018-05-31T20:14:01.410Z,66.00
2018-05-31T20:16:35.125Z,66.60
2018-05-31T20:19:07.715Z,66.60
2018-05-31T20:21:40.204Z,66.40
2018-05-31T20:24:13.552Z,65.70
2018-05-31T20:26:47.660Z,65.80
2018-05-31T20:29:21.236Z,66.00
2018-05-31T20:31:53.951Z,66.00
2018-05-31T20:34:26.440Z,66.80
2018-05-31T20:36:59.870Z,66.00
2018-05-31T20:39:32.403Z,66.00
2018-05-31T20:42:05.699Z,66.70
2018-05-31T20:44:38.680Z,66.80
2018-05-31T20:47:11.703Z,67.00
2018-05-31T20:49:45.032Z,67.90
2018-05-31T20:52:18.967Z,68.50
2018-05-31T20:54:51.826Z,68.80
2018-05-31T20:57:25.545Z,69.50
2018-05-31T20:59:59.033Z,69.40
2018-05-31T21:02:32.377Z,70.40
2018-05-31T21:05:06.604Z,70.90
2018-05-31T21:07:39.307Z,70.90
2018-05-31T21:10:12.473Z,71.60
2018-05-31T21:12:46.462Z,72.00
2018-05-31T21:15:19.922Z,72.40
2018-05-31T21:17:53.377Z,72.30
2018-05-31T21:20:26.811Z,72.50
2018-05-31T21:23:00.701Z,73.00
2018-05-31T21:25:34.103Z,73.20
2018-05-31T21:28:06.539Z,73.00
2018-05-31T21:30:39.951Z,73.00
2018-05-31T21:33:12.401Z,73.00
2018-05-31T21:35:45.032Z,73.10
2018-05-31T21:38:18.061Z,73.00
2018-05-31T21:40:50.650Z,73.00
2018-05-31T21:43:23.098Z,73.10
2018-05-31T21:45:55.583Z,73.10
2018-05-31T21:48:28.857Z,73.60
2018-05-31T21:51:01.465Z,73.50
2018-05-31T21:53:33.825Z,73.40
2018-05-31T21:56:06.392Z,73.50
2018-05-31T21:58:39.716Z,74.00
2018-05-31T22:01:12.413Z,74.00
2018-05-31T22:03:44.918Z,74.10
2018-05-31T22:06:18.983Z,74.50
2018-05-31T22:08:51.658Z,74.50
2018-05-31T22:11:24.220Z,74.70
2018-05-31T22:13:57.423Z,75.20
2018-05-31T22:16:30.263Z,75.20
2018-05-31T22:19:03.617Z,75.40
2018-05-31T22:21:37.832Z,75.60
2018-05-31T22:24:10.306Z,75.60
2018-05-31T22:26:44.405Z,76.50
2018-05-31T22:29:17.050Z,75.80
2018-05-31T22:31:49.444Z,75.70
2018-05-31T22:34:21.987Z,76.00
2018-05-31T22:36:55.347Z,76.40
2018-05-31T22:39:28.555Z,76.80
2018-05-31T22:42:01.224Z,76.80
2018-05-31T22:44:35.304Z,76.50
2018-05-31T22:47:08.015Z,76.40
2018-05-31T22:49:41.357Z,76.30
2018-05-31T22:52:14.075Z,76.00
2018-05-31T22:54:47.296Z,75.80
2018-05-31T22:57:19.688Z,76.00
2018-05-31T22:59:52.113Z,76.10
2018-05-31T23:02:24.661Z,76.00
2018-05-31T23:05:05.263Z,75.70
2018-05-31T23:07:37.814Z,75.40
2018-05-31T23:10:10.275Z,75.20
2018-05-31T23:12:42.953Z,75.30
2018-05-31T23:15:16.081Z,75.00
2018-05-31T23:17:48.791Z,75.00
2018-05-31T23:20:21.297Z,75.00
2018-05-31T23:22:54.622Z,75.10
2018-05-31T23:25:27.732Z,75.20
2018-05-31T23:28:00.393Z,75.20
2018-05-31T23:30:32.742Z,75.20
2018-05-31T23:33:05.380Z,75.80
2018-05-31T23:35:39.638Z,75.80
2018-05-31T23:38:12.151Z,75.70
2018-05-31T23:40:45.385Z,75.80
2018-05-31T23:43:18.726Z,76.00
2018-05-31T23:45:51.143Z,76.00
2018-05-31T23:48:24.388Z,76.50
2018-05-31T23:50:56.964Z,76.50
2018-05-31T23:53:30.273Z,77.20
2018-05-31T23:56:03.621Z,76.40
2018-05-31T23:58:36.211Z,76.40
